Terminal Aerodrome Forecast
Issued by NWS Wakefield, VA

Home | Current Version | Previous Version | Text Only | Print | Product List | Glossary On
Versions: 1 2 3 4 5 6 7 8 9 10 11 12 13
000
FTUS41 KAKQ 251120
TAFECG
TAF
KECG 251120Z 2512/2612 17007KT P6SM SCT250
     FM251700 18010G16KT P6SM FEW060 SCT250
     FM252200 20005KT P6SM SCT250=

USA.gov is the U.S. government's official web portal to all federal, state and local government web resources and services.